Flight Track Log - Related Links

Times and Time Zones

All times are in EDT time to prevent confusion due to time zone crossing. See the N517CP flight status page for this flight to view local times or setup timezone preferences in your user account.

Time Position Orientation Groundspeed Altitude Reporting Facility
EDT Latitude Longitude Course Direction KTS MPH feet Rate Location/Type
Fri 09:26:09 AM 30.3850 -97.4731 111° Southeast 133 153 4,500  Level Houston Center
Fri 09:27:12 AM 30.3639 -97.4333 122° Southeast 141 162 5,500 871 Climbing Houston Center
Fri 09:28:13 AM 30.3511 -97.3894 109° East 142 163 6,300 732 Climbing Houston Center
Fri 09:29:15 AM 30.3378 -97.3436 109° East 147 169 7,000 726 Climbing Houston Center
Fri 09:30:00 AM 30.3899 -97.1847 90° East  Level Estimated
Fri 09:30:17 AM 30.3286 -97.2972 103° East 148 170 7,800  Level Houston Center
Fri 09:31:00 AM 30.3699 -97.1254 111° Southeast  Level FlightAware Approximate
Fri 09:31:19 AM 30.3217 -97.2492 99° East 149 171 8,200  Level Houston Center
Fri 09:32:21 AM 30.3167 -97.2011 97° East 149 171 8,800 290 Climbing Houston Center
Fri 09:33:23 AM 30.3136 -97.1372 93° East 163 188 8,800  Level Houston Center
Fri 09:34:25 AM 30.3144 -97.0756 89° East 184 212 8,800 48 Level Houston Center
Fri 09:35:27 AM 30.3144 -97.0164 90° East 184 212 8,900 48 Climbing Houston Center
Fri 09:36:29 AM 30.3164 -96.9569 88° East 184 212 8,900  Level Houston Center
Fri 09:37:31 AM 30.3183 -96.8978 88° East 184 212 8,900  Level Houston Center
Fri 09:38:33 AM 30.3225 -96.8367 85° East 188 216 8,900  Level Houston Center
Fri 09:39:35 AM 30.3236 -96.7764 89° East 188 216 8,900  Level Houston Center
Fri 09:40:37 AM 30.3183 -96.7053 95° East 189 217 8,900  Level Houston Center
Fri 09:41:39 AM 30.3161 -96.6431 92° East 191 220 8,900  Level Houston Center
Fri 09:42:41 AM 30.3142 -96.5806 92° East 193 222 8,900  Level Houston Center
Fri 09:43:43 AM 30.3103 -96.5186 94° East 192 221 8,900  Level Houston Center
Fri 09:44:45 AM 30.3072 -96.4558 93° East 194 223 8,900 77 Level Houston Center
Fri 09:45:01 AM 30.3067 -96.4336 92° East 195 224 9,000  Climbing Houston Center
Fri 09:45:47 AM 30.3047 -96.3925 93° East 194 223 8,900 -56 Descending Houston Center
Fri 09:46:49 AM 30.3014 -96.3300 94° East 194 223 8,900  Level Houston Center
Fri 09:47:51 AM 30.2992 -96.2667 92° East 195 224 8,900 97 Level Houston Center
Fri 09:48:53 AM 30.2947 -96.1933 94° East 192 221 9,100 97 Climbing Houston Center
Fri 09:49:55 AM 30.2914 -96.1283 93° East 195 224 9,100  Level Houston Center
Fri 09:50:56 AM 30.2881 -96.0658 94° East 195 224 9,100  Level Houston Center
Fri 09:51:57 AM 30.2850 -96.0033 93° East 196 226 9,100  Level Houston Center
Fri 09:52:58 AM 30.2792 -95.9364 96° East 196 226 9,100  Level Houston Center
Fri 09:53:59 AM 30.2758 -95.8764 94° East 198 228 9,100 -47 Level Houston Center
Fri 09:55:05 AM 30.2722 -95.8136 94° East 196 226 9,000  Descending Houston Center
Fri 09:56:02 AM 30.2664 -95.7444 96° East 197 227 9,100 51 Climbing Houston Center
Fri 09:57:02 AM 30.2631 -95.6819 94° East 196 226 9,100 -49 Level Houston Center
Fri 09:58:04 AM 30.2594 -95.6169 94° East 198 228 9,000 -49 Descending Houston Center
Fri 09:59:05 AM 30.2533 -95.5500 96° East 200 230 9,000  Level Houston Center
Fri 10:00:06 AM 30.2497 -95.4853 94° East 199 229 9,000  Level Houston Center
Fri 10:01:07 AM 30.2456 -95.4181 94° East 207 238 9,000  Level Houston Center
Fri 10:02:02 AM 30.2403 -95.3581 96° East 203 234 9,000  Level Houston Center
Fri 10:02:19 AM 30.2411 -95.3519 81° East 203 234 9,000 -98 Level Houston Center
Fri 10:03:03 AM 30.2364 -95.2933 95° East 200 230 8,900  Descending Houston Center
Fri 10:03:21 AM 30.2361 -95.2881 93° East 200 230 9,000 98 Climbing Houston Center
Fri 10:04:04 AM 30.2306 -95.2289 96° East 202 232 9,000  Level Houston Center
Fri 10:04:23 AM 30.2311 -95.2097 88° East 202 232 9,000  Level Houston Center
Fri 10:05:05 AM 30.2264 -95.1617 96° East 204 235 9,000  Level Houston Center
Fri 10:05:25 AM 30.2264 -95.1444 90° East 203 234 9,000  Level Houston Center
Fri 10:06:06 AM 30.2225 -95.0967 95° East 202 232 9,000  Level Houston Center
Fri 10:06:28 AM 30.2219 -95.0794 92° East 203 234 9,000  Level Houston Center
Fri 10:07:07 AM 30.2183 -95.0319 95° East 204 235 9,000  Level Houston Center
Fri 10:07:29 AM 30.2172 -95.0136 94° East 204 235 9,000  Level Houston Center
Fri 10:08:09 AM 30.2119 -94.9625 97° East 203 234 9,000  Level Houston Center
Fri 10:08:32 AM 30.2125 -94.9478 87° East 205 236 9,000  Level Houston Center
Fri 10:09:10 AM 30.2081 -94.8978 96° East 204 235 9,000  Level Houston Center
Fri 10:09:34 AM 30.2075 -94.8831 92° East 204 235 9,000  Level Houston Center
Fri 10:10:11 AM 30.2017 -94.8308 97° East 205 236 9,000  Level Houston Center
Fri 10:10:36 AM 30.2022 -94.8047 89° East 204 235 9,000  Level Houston Center
Fri 10:11:12 AM 30.1975 -94.7661 98° East 203 234 9,000  Level Houston Center
Fri 10:11:38 AM 30.1969 -94.7394 91° East 204 235 9,000  Level Houston Center
Fri 10:12:20 AM 30.1925 -94.6917 96° East 203 234 9,000  Level Houston Center
Fri 10:12:40 AM 30.1925 -94.6750 90° East 202 232 9,000  Level Houston Center
Fri 10:13:21 AM 30.1881 -94.6247 96° East 205 236 9,000  Level Houston Center
Fri 10:13:42 AM 30.1886 -94.6089 88° East 204 235 9,000  Level Houston Center
Fri 10:14:22 AM 30.1858 -94.5597 94° East 202 232 9,000  Level Houston Center
Fri 10:14:44 AM 30.1878 -94.5447 81° East 202 232 9,000  Level Houston Center
Fri 10:15:23 AM 30.1861 -94.4967 92° East 200 230 9,000  Level Houston Center
Fri 10:15:47 AM 30.1858 -94.4711 91° East 200 230 9,000  Level Houston Center
Fri 10:16:24 AM 30.1839 -94.4317 93° East 198 228 9,000  Level Houston Center
Fri 10:16:49 AM 30.1844 -94.4083 88° East 197 227 9,000  Level Houston Center
Fri 10:17:25 AM 30.1814 -94.3642 95° East 199 229 9,000  Level Houston Center
Fri 10:17:51 AM 30.1825 -94.3444 86° East 199 229 9,000  Level Houston Center
Fri 10:18:26 AM 30.1794 -94.3017 95° East 198 228 9,000  Level Houston Center
Fri 10:18:53 AM 30.1806 -94.2822 86° East 196 226 9,000  Level Houston Center
Fri 10:19:27 AM 30.1772 -94.2367 95° East 199 229 9,000  Level Houston Center
Fri 10:19:55 AM 30.1797 -94.2169 82° East 200 230 9,000  Level Houston Center
Fri 10:20:28 AM 30.1750 -94.1739 97° East 200 230 9,000  Level Houston Center
Fri 10:20:57 AM 30.1769 -94.1400 86° East 201 231 9,000 66 Level Houston Center
Fri 10:21:59 AM 30.1753 -94.0756 92° East 201 231 9,100 48 Climbing Houston Center
Fri 10:23:01 AM 30.1728 -94.0117 93° East 200 230 9,100  Level Houston Center
Fri 10:24:03 AM 30.1706 -93.9467 92° East 203 234 9,100  Level Houston Center
Fri 10:25:05 AM 30.1686 -93.8822 92° East 201 231 9,100  Level Houston Center
Fri 10:26:08 AM 30.1664 -93.8044 92° East 203 234 9,100  Level Houston Center
Fri 10:27:10 AM 30.1639 -93.7403 93° East 202 232 9,100  Level Houston Center
Fri 10:28:12 AM 30.1619 -93.6764 92° East 201 231 9,100  Level Houston Center
Fri 10:29:14 AM 30.1594 -93.6133 93° East 199 229 9,100  Level Houston Center
Fri 10:30:16 AM 30.1583 -93.5489 91° East 201 231 9,100  Level Houston Center
Fri 10:31:18 AM 30.1542 -93.4717 94° East 203 234 9,100  Level Houston Center
Fri 10:32:20 AM 30.1528 -93.4072 91° East 203 234 9,100  Level Houston Center
Fri 10:33:22 AM 30.1506 -93.3431 92° East 202 232 9,100 -48 Level Houston Center
Fri 10:34:24 AM 30.1478 -93.2769 93° East 207 238 9,000 -48 Descending Houston Center
Fri 10:35:27 AM 30.1461 -93.2139 92° East 199 229 9,000 48 Level Houston Center
Fri 10:36:29 AM 30.1419 -93.1372 94° East 199 229 9,100 48 Climbing Houston Center
Fri 10:37:31 AM 30.1425 -93.0711 89° East 206 237 9,100  Level Houston Center
Fri 10:38:33 AM 30.1467 -93.0069 86° East 203 234 9,100  Level Houston Center
Fri 10:39:35 AM 30.1497 -92.9414 87° East 204 235 9,100  Level Houston Center
Fri 10:40:37 AM 30.1528 -92.8750 87° East 206 237 9,100  Level Houston Center
Fri 10:41:39 AM 30.1564 -92.8094 86° East 206 237 9,100  Level Houston Center
Fri 10:42:41 AM 30.1603 -92.7294 87° East 209 241 9,100  Level Houston Center
Fri 10:43:43 AM 30.1631 -92.6642 87° East 205 236 9,100 -48 Level Houston Center
Fri 10:44:46 AM 30.1664 -92.5992 87° East 204 235 9,000 -48 Descending Houston Center
Fri 10:45:48 AM 30.1692 -92.5333 87° East 205 236 9,000  Level Houston Center
Fri 10:46:50 AM 30.1722 -92.4686 87° East 204 235 9,000  Level Houston Center
Fri 10:47:52 AM 30.1764 -92.3911 86° East 203 234 9,000  Level Houston Center
Fri 10:48:54 AM 30.1786 -92.3272 88° East 201 231 9,000  Level Houston Center
Fri 10:49:56 AM 30.1822 -92.2628 86° East 201 231 9,000  Level Houston Center
Fri 10:50:58 AM 30.1839 -92.1992 88° East 199 229 9,000  Level Houston Center
Fri 10:52:00 AM 30.1875 -92.1342 86° East 200 230 9,000  Level Houston Center
Fri 10:53:02 AM 30.1908 -92.0694 87° East 202 232 9,000  Level Houston Center
Fri 10:54:05 AM 30.1931 -91.9922 88° East 201 231 9,000  Level Houston Center
Fri 10:55:07 AM 30.1908 -91.9289 92° East 199 229 9,000  Level Houston Center
Fri 10:56:09 AM 30.1850 -91.8664 96° East 197 227 9,000  Level Houston Center
Fri 10:57:11 AM 30.1808 -91.8042 94° East 196 226 9,000  Level Houston Center
Fri 10:58:13 AM 30.1750 -91.7425 96° East 194 223 9,000 -48 Level Houston Center
Fri 10:59:15 AM 30.1717 -91.6756 93° East 194 223 8,900 -48 Descending Houston Center
Fri 11:00:17 AM 30.1667 -91.6147 95° East 191 220 8,900  Level Houston Center
Fri 11:01:19 AM 30.1628 -91.5411 93° East 192 221 8,900  Level Houston Center
Fri 11:02:22 AM 30.1583 -91.4803 95° East 190 219 8,900  Level Houston Center
Fri 11:03:24 AM 30.1536 -91.4186 95° East 193 222 8,900  Level Houston Center
Fri 11:04:26 AM 30.1489 -91.3569 95° East 193 222 8,900  Level Houston Center
Fri 11:05:28 AM 30.1436 -91.2953 96° East 193 222 8,900  Level Houston Center
Fri 11:06:13 AM 30.1403 -91.2400 94° East 192 221 8,900  Level Houston Center
Fri 11:06:30 AM 30.1386 -91.2358 115° Southeast 189 217 8,900  Level Houston Center
Fri 11:06:55 AM 30.1372 -91.1969 92° East 193 222 8,900  Level Houston Center
Fri 11:07:32 AM 30.1328 -91.1614 98° East 193 222 8,900  Level Houston Center
Fri 11:07:56 AM 30.1317 -91.1369 93° East 192 221 8,900  Level Houston Center
Fri 11:08:34 AM 30.1289 -91.1014 95° East 190 219 8,900  Level Houston Center
Fri 11:09:09 AM 30.1256 -91.0628 96° East 189 217 8,900  Level Houston Center
Fri 11:09:36 AM 30.1236 -91.0406 96° East 190 219 8,900  Level Houston Center
Fri 11:09:58 AM 30.1225 -91.0172 93° East 188 216 8,900 -97 Level Houston Center
Fri 11:10:38 AM 30.1122 -90.9839 110° East 188 216 8,800 -295 Descending Houston Center
Fri 11:10:59 AM 30.1003 -90.9625 123° Southeast 193 222 8,600 -381 Descending Houston Center
Fri 11:11:41 AM 30.0864 -90.9281 115° Southeast 194 223 8,400 -500 Descending Houston Center
Fri 11:11:59 AM 30.0714 -90.9011 123° Southeast 200 230 8,100 -484 Descending Houston Center
Fri 11:12:43 AM 30.0603 -90.8736 115° Southeast 196 226 7,900 -492 Descending Houston Center
Fri 11:13:00 AM 30.0469 -90.8467 120° Southeast 193 222 7,600 -677 Descending Houston Center
Fri 11:13:45 AM 30.0317 -90.8122 117° Southeast 189 217 7,200 -492 Descending Houston Center
Fri 11:14:01 AM 30.0292 -90.7969 101° East 174 200 7,100 -484 Descending Houston Center
Fri 11:14:47 AM 30.0244 -90.7558 98° East 187 215 6,700 -627 Descending Houston Center
Fri 11:15:08 AM 30.0211 -90.7347 100° East 178 205 6,400 -581 Descending Houston Center
Fri 11:15:49 AM 30.0167 -90.7008 99° East 179 206 6,100 -590 Descending Houston Center
Fri 11:16:09 AM 30.0050 -90.6753 118° Southeast 185 213 5,800 -640 Descending Houston Center
Fri 11:17:04 AM 29.9889 -90.6278 111° Southeast 185 213 5,300 -519 Descending Houston Center
Fri 11:17:53 AM 29.9808 -90.5908 104° East 181 208 4,900 -595 Descending Houston Center
Fri 11:18:55 AM 29.9600 -90.5256 110° East 181 208 4,200 -692 Descending Houston Center
Fri 11:19:11 AM 29.9544 -90.5092 111° Southeast 180 207 4,000 -581 Descending Houston Center
Fri 11:19:57 AM 29.9422 -90.4706 110° East 182 209 3,600 -550 Descending Houston Center
Fri 11:21:00 AM 29.9222 -90.4172 113° Southeast 182 209 3,000 -288 Descending Houston Center
Fri 11:22:02 AM 29.9000 -90.3625 115° Southeast 166 191 3,000  Level Houston Center
Fri 11:23:09 AM 29.8772 -90.3058 115° Southeast 162 186 3,000  Level Houston Center
Fri 11:24:07 AM 29.8614 -90.2628 113° Southeast 167 192 3,000  Level Houston Center
Fri 11:25:08 AM 29.8436 -90.2144 113° Southeast 165 190 3,000  Level Houston Center
Fri 11:26:10 AM 29.8242 -90.1667 115° Southeast 165 190 3,000 -97 Level Houston Center
Fri 11:27:12 AM 29.8278 -90.1164 85° East 172 198 2,800 -195 Descending Houston Center
Fri 11:28:13 AM 29.8444 -90.0578 72° East 173 199 2,600 -103 Descending Houston Center
Fri 11:29:08 AM 29.8731 -90.0303 40° Northeast 156 180 2,600 -333 Level Houston Center
Fri 11:30:19 AM 29.9222 -90.0292 North 150 173 1,900 -645 Descending Houston Center
Fri 11:31:09 AM 29.9522 -90.0292 360° North 116 133 1,300 -589 Descending Houston Center
Fri 11:32:11 AM 29.9817 -90.0306 358° North 98 113 800 -492 Descending Houston Center
Fri 11:33:11 AM 30.0150 -90.0314 359° North 121 139 300 -500 Descending Houston Center

Login

Don't have an account? Register now (free) for customized features, flight alerts, and more!